sensor_id;sensor_type;location;lat;lon;timestamp;P1;durP1;ratioP1;P2;durP2;ratioP2
9888;SDS011;4983;42.112;24.738;2022-11-20T00:00:04;49.57;;;36.90;;
9888;SDS011;4983;42.112;24.738;2022-11-20T00:02:31;45.93;;;35.97;;
9888;SDS011;4983;42.112;24.738;2022-11-20T00:04:58;61.30;;;53.27;;
9888;SDS011;4983;42.112;24.738;2022-11-20T00:07:24;52.93;;;43.77;;
9888;SDS011;4983;42.112;24.738;2022-11-20T00:09:51;56.03;;;47.13;;
9888;SDS011;4983;42.112;24.738;2022-11-20T00:12:18;54.40;;;45.50;;
9888;SDS011;4983;42.112;24.738;2022-11-20T00:14:44;45.43;;;38.53;;
9888;SDS011;4983;42.112;24.738;2022-11-20T00:17:12;42.07;;;36.20;;
9888;SDS011;4983;42.112;24.738;2022-11-20T00:19:39;42.53;;;36.33;;
9888;SDS011;4983;42.112;24.738;2022-11-20T00:22:05;64.63;;;54.80;;
9888;SDS011;4983;42.112;24.738;2022-11-20T00:24:32;51.53;;;45.43;;
9888;SDS011;4983;42.112;24.738;2022-11-20T00:26:58;47.27;;;37.67;;
9888;SDS011;4983;42.112;24.738;2022-11-20T00:29:25;45.33;;;35.10;;
9888;SDS011;4983;42.112;24.738;2022-11-20T00:31:51;44.47;;;38.57;;
9888;SDS011;4983;42.112;24.738;2022-11-20T00:34:20;56.13;;;48.57;;
9888;SDS011;4983;42.112;24.738;2022-11-20T00:36:46;44.90;;;37.10;;
9888;SDS011;4983;42.112;24.738;2022-11-20T00:39:13;49.80;;;37.67;;
9888;SDS011;4983;42.112;24.738;2022-11-20T00:41:39;46.10;;;36.47;;
9888;SDS011;4983;42.112;24.738;2022-11-20T00:44:06;44.47;;;36.80;;
9888;SDS011;4983;42.112;24.738;2022-11-20T00:46:32;48.47;;;39.50;;
9888;SDS011;4983;42.112;24.738;2022-11-20T00:48:59;49.73;;;40.17;;
9888;SDS011;4983;42.112;24.738;2022-11-20T00:51:27;45.13;;;36.43;;
9888;SDS011;4983;42.112;24.738;2022-11-20T00:53:54;61.73;;;51.43;;
9888;SDS011;4983;42.112;24.738;2022-11-20T00:56:21;42.10;;;36.60;;
9888;SDS011;4983;42.112;24.738;2022-11-20T00:58:48;47.30;;;37.43;;
9888;SDS011;4983;42.112;24.738;2022-11-20T01:01:16;48.93;;;38.77;;
9888;SDS011;4983;42.112;24.738;2022-11-20T01:03:44;41.60;;;35.60;;
9888;SDS011;4983;42.112;24.738;2022-11-20T01:06:11;42.03;;;34.67;;
9888;SDS011;4983;42.112;24.738;2022-11-20T01:08:40;44.77;;;34.50;;
9888;SDS011;4983;42.112;24.738;2022-11-20T01:11:07;51.97;;;38.23;;
9888;SDS011;4983;42.112;24.738;2022-11-20T01:13:34;48.63;;;39.60;;
9888;SDS011;4983;42.112;24.738;2022-11-20T01:16:05;47.63;;;41.80;;
9888;SDS011;4983;42.112;24.738;2022-11-20T01:18:31;45.17;;;40.07;;
9888;SDS011;4983;42.112;24.738;2022-11-20T01:21:00;46.13;;;37.43;;
9888;SDS011;4983;42.112;24.738;2022-11-20T01:23:29;40.17;;;34.53;;
9888;SDS011;4983;42.112;24.738;2022-11-20T01:26:00;43.40;;;36.10;;
9888;SDS011;4983;42.112;24.738;2022-11-20T01:28:27;48.63;;;40.17;;
9888;SDS011;4983;42.112;24.738;2022-11-20T01:30:54;43.27;;;35.67;;
9888;SDS011;4983;42.112;24.738;2022-11-20T01:33:21;43.00;;;35.77;;
9888;SDS011;4983;42.112;24.738;2022-11-20T01:35:47;41.53;;;35.70;;
9888;SDS011;4983;42.112;24.738;2022-11-20T01:38:14;42.83;;;34.83;;
9888;SDS011;4983;42.112;24.738;2022-11-20T01:40:41;45.83;;;34.33;;
9888;SDS011;4983;42.112;24.738;2022-11-20T01:43:12;38.30;;;34.10;;
9888;SDS011;4983;42.112;24.738;2022-11-20T01:45:55;41.43;;;36.07;;
9888;SDS011;4983;42.112;24.738;2022-11-20T01:48:22;42.33;;;34.47;;
9888;SDS011;4983;42.112;24.738;2022-11-20T01:50:50;44.20;;;37.00;;
9888;SDS011;4983;42.112;24.738;2022-11-20T01:53:18;39.93;;;35.53;;
9888;SDS011;4983;42.112;24.738;2022-11-20T01:55:46;44.17;;;37.50;;
9888;SDS011;4983;42.112;24.738;2022-11-20T01:58:16;40.63;;;36.17;;
9888;SDS011;4983;42.112;24.738;2022-11-20T02:00:43;43.67;;;34.47;;
9888;SDS011;4983;42.112;24.738;2022-11-20T02:03:10;43.53;;;34.30;;
9888;SDS011;4983;42.112;24.738;2022-11-20T02:05:38;44.37;;;38.93;;
9888;SDS011;4983;42.112;24.738;2022-11-20T02:08:07;43.70;;;38.50;;
9888;SDS011;4983;42.112;24.738;2022-11-20T02:10:34;43.17;;;36.47;;
9888;SDS011;4983;42.112;24.738;2022-11-20T02:13:02;44.80;;;35.73;;
9888;SDS011;4983;42.112;24.738;2022-11-20T02:15:47;40.67;;;36.37;;
9888;SDS011;4983;42.112;24.738;2022-11-20T02:18:14;41.73;;;36.77;;
9888;SDS011;4983;42.112;24.738;2022-11-20T02:20:42;40.73;;;34.03;;
9888;SDS011;4983;42.112;24.738;2022-11-20T02:23:11;39.53;;;35.23;;
9888;SDS011;4983;42.112;24.738;2022-11-20T02:25:39;36.90;;;32.90;;
9888;SDS011;4983;42.112;24.738;2022-11-20T02:28:07;38.27;;;32.83;;
9888;SDS011;4983;42.112;24.738;2022-11-20T02:30:34;43.23;;;38.70;;
9888;SDS011;4983;42.112;24.738;2022-11-20T02:33:00;42.33;;;36.80;;
9888;SDS011;4983;42.112;24.738;2022-11-20T02:35:40;43.73;;;36.30;;
9888;SDS011;4983;42.112;24.738;2022-11-20T02:38:07;41.97;;;35.77;;
9888;SDS011;4983;42.112;24.738;2022-11-20T02:40:34;45.00;;;32.77;;
9888;SDS011;4983;42.112;24.738;2022-11-20T02:43:02;38.30;;;34.03;;
9888;SDS011;4983;42.112;24.738;2022-11-20T02:45:28;41.20;;;34.00;;
9888;SDS011;4983;42.112;24.738;2022-11-20T02:47:55;40.73;;;31.93;;
9888;SDS011;4983;42.112;24.738;2022-11-20T02:50:22;36.03;;;30.57;;
9888;SDS011;4983;42.112;24.738;2022-11-20T02:52:48;35.50;;;31.47;;
9888;SDS011;4983;42.112;24.738;2022-11-20T02:55:15;40.13;;;33.73;;
9888;SDS011;4983;42.112;24.738;2022-11-20T02:57:42;42.43;;;33.00;;
9888;SDS011;4983;42.112;24.738;2022-11-20T03:00:11;38.07;;;31.83;;
9888;SDS011;4983;42.112;24.738;2022-11-20T03:02:38;35.90;;;31.53;;
9888;SDS011;4983;42.112;24.738;2022-11-20T03:05:05;34.77;;;30.90;;
9888;SDS011;4983;42.112;24.738;2022-11-20T03:07:32;40.70;;;31.87;;
9888;SDS011;4983;42.112;24.738;2022-11-20T03:09:59;35.50;;;30.73;;
9888;SDS011;4983;42.112;24.738;2022-11-20T03:12:25;37.83;;;30.43;;
9888;SDS011;4983;42.112;24.738;2022-11-20T03:14:52;31.93;;;28.47;;
9888;SDS011;4983;42.112;24.738;2022-11-20T03:17:20;35.87;;;31.97;;
9888;SDS011;4983;42.112;24.738;2022-11-20T03:19:46;34.57;;;30.83;;
9888;SDS011;4983;42.112;24.738;2022-11-20T03:22:13;34.17;;;29.07;;
9888;SDS011;4983;42.112;24.738;2022-11-20T03:24:40;33.87;;;29.67;;
9888;SDS011;4983;42.112;24.738;2022-11-20T03:27:06;35.63;;;29.47;;
9888;SDS011;4983;42.112;24.738;2022-11-20T03:29:34;36.20;;;28.97;;
9888;SDS011;4983;42.112;24.738;2022-11-20T03:32:01;33.03;;;28.67;;
9888;SDS011;4983;42.112;24.738;2022-11-20T03:34:29;34.37;;;28.93;;
9888;SDS011;4983;42.112;24.738;2022-11-20T03:36:55;37.97;;;28.57;;
9888;SDS011;4983;42.112;24.738;2022-11-20T03:39:22;36.10;;;28.20;;
9888;SDS011;4983;42.112;24.738;2022-11-20T03:41:48;34.63;;;28.23;;
9888;SDS011;4983;42.112;24.738;2022-11-20T03:44:15;34.47;;;27.77;;
9888;SDS011;4983;42.112;24.738;2022-11-20T03:46:42;32.23;;;27.10;;
9888;SDS011;4983;42.112;24.738;2022-11-20T03:49:08;32.80;;;25.80;;
9888;SDS011;4983;42.112;24.738;2022-11-20T03:51:36;31.00;;;25.87;;
9888;SDS011;4983;42.112;24.738;2022-11-20T03:54:03;29.67;;;24.00;;
9888;SDS011;4983;42.112;24.738;2022-11-20T03:56:30;32.57;;;24.47;;
9888;SDS011;4983;42.112;24.738;2022-11-20T03:58:57;29.37;;;22.67;;
9888;SDS011;4983;42.112;24.738;2022-11-20T04:01:26;29.90;;;22.93;;
9888;SDS011;4983;42.112;24.738;2022-11-20T04:03:53;33.80;;;24.43;;
9888;SDS011;4983;42.112;24.738;2022-11-20T04:06:21;34.07;;;23.43;;
9888;SDS011;4983;42.112;24.738;2022-11-20T04:08:49;28.83;;;22.20;;
9888;SDS011;4983;42.112;24.738;2022-11-20T04:11:17;26.40;;;21.30;;
9888;SDS011;4983;42.112;24.738;2022-11-20T04:13:46;36.43;;;24.47;;
9888;SDS011;4983;42.112;24.738;2022-11-20T04:16:13;29.70;;;22.87;;
9888;SDS011;4983;42.112;24.738;2022-11-20T04:18:39;28.93;;;23.70;;
9888;SDS011;4983;42.112;24.738;2022-11-20T04:21:06;32.77;;;24.10;;
9888;SDS011;4983;42.112;24.738;2022-11-20T04:23:33;28.67;;;23.23;;
9888;SDS011;4983;42.112;24.738;2022-11-20T04:26:02;29.23;;;24.07;;
9888;SDS011;4983;42.112;24.738;2022-11-20T04:28:29;32.93;;;24.07;;
9888;SDS011;4983;42.112;24.738;2022-11-20T04:31:01;31.77;;;23.40;;
9888;SDS011;4983;42.112;24.738;2022-11-20T04:33:27;25.70;;;22.33;;
9888;SDS011;4983;42.112;24.738;2022-11-20T04:35:54;30.33;;;23.53;;
9888;SDS011;4983;42.112;24.738;2022-11-20T04:38:21;27.07;;;23.10;;
9888;SDS011;4983;42.112;24.738;2022-11-20T04:40:48;32.73;;;23.20;;
9888;SDS011;4983;42.112;24.738;2022-11-20T04:43:16;27.80;;;23.40;;
9888;SDS011;4983;42.112;24.738;2022-11-20T04:45:43;24.83;;;19.80;;
9888;SDS011;4983;42.112;24.738;2022-11-20T04:48:16;26.67;;;20.10;;
9888;SDS011;4983;42.112;24.738;2022-11-20T04:50:42;27.33;;;19.63;;
9888;SDS011;4983;42.112;24.738;2022-11-20T04:53:09;26.23;;;18.33;;
9888;SDS011;4983;42.112;24.738;2022-11-20T04:55:36;26.07;;;17.00;;
9888;SDS011;4983;42.112;24.738;2022-11-20T04:58:02;23.27;;;16.60;;
9888;SDS011;4983;42.112;24.738;2022-11-20T05:00:30;25.20;;;18.27;;
9888;SDS011;4983;42.112;24.738;2022-11-20T05:02:57;27.37;;;16.07;;
9888;SDS011;4983;42.112;24.738;2022-11-20T05:05:23;25.47;;;15.90;;
9888;SDS011;4983;42.112;24.738;2022-11-20T05:07:50;22.97;;;15.13;;
9888;SDS011;4983;42.112;24.738;2022-11-20T05:10:17;23.40;;;14.23;;
9888;SDS011;4983;42.112;24.738;2022-11-20T05:12:43;21.10;;;14.47;;
9888;SDS011;4983;42.112;24.738;2022-11-20T05:15:10;26.30;;;14.77;;
9888;SDS011;4983;42.112;24.738;2022-11-20T05:17:38;22.97;;;16.03;;
9888;SDS011;4983;42.112;24.738;2022-11-20T05:20:05;23.30;;;15.30;;
9888;SDS011;4983;42.112;24.738;2022-11-20T05:22:32;20.63;;;15.20;;
9888;SDS011;4983;42.112;24.738;2022-11-20T05:24:59;20.23;;;16.00;;
9888;SDS011;4983;42.112;24.738;2022-11-20T05:27:25;19.67;;;12.27;;
9888;SDS011;4983;42.112;24.738;2022-11-20T05:29:52;19.17;;;12.47;;
9888;SDS011;4983;42.112;24.738;2022-11-20T05:32:18;18.60;;;12.40;;
9888;SDS011;4983;42.112;24.738;2022-11-20T05:34:46;19.33;;;13.23;;
9888;SDS011;4983;42.112;24.738;2022-11-20T05:37:13;19.90;;;14.17;;
9888;SDS011;4983;42.112;24.738;2022-11-20T05:39:39;21.50;;;14.50;;
9888;SDS011;4983;42.112;24.738;2022-11-20T05:42:06;23.57;;;16.20;;
9888;SDS011;4983;42.112;24.738;2022-11-20T05:44:51;39.67;;;25.40;;
9888;SDS011;4983;42.112;24.738;2022-11-20T05:47:17;21.77;;;15.60;;
9888;SDS011;4983;42.112;24.738;2022-11-20T05:49:44;34.33;;;30.87;;
9888;SDS011;4983;42.112;24.738;2022-11-20T05:52:12;46.00;;;36.30;;
9888;SDS011;4983;42.112;24.738;2022-11-20T05:54:38;38.07;;;26.57;;
9888;SDS011;4983;42.112;24.738;2022-11-20T05:57:05;30.87;;;25.87;;
9888;SDS011;4983;42.112;24.738;2022-11-20T05:59:31;30.27;;;24.27;;
9888;SDS011;4983;42.112;24.738;2022-11-20T06:01:58;29.93;;;25.27;;
9888;SDS011;4983;42.112;24.738;2022-11-20T06:04:25;26.47;;;20.03;;
9888;SDS011;4983;42.112;24.738;2022-11-20T06:06:52;26.10;;;17.40;;
9888;SDS011;4983;42.112;24.738;2022-11-20T06:09:20;28.67;;;21.53;;
9888;SDS011;4983;42.112;24.738;2022-11-20T06:11:47;22.50;;;17.70;;
9888;SDS011;4983;42.112;24.738;2022-11-20T06:14:14;23.73;;;17.27;;
9888;SDS011;4983;42.112;24.738;2022-11-20T06:16:41;20.33;;;14.93;;
9888;SDS011;4983;42.112;24.738;2022-11-20T06:19:07;20.97;;;14.83;;
9888;SDS011;4983;42.112;24.738;2022-11-20T06:21:34;26.03;;;15.10;;
9888;SDS011;4983;42.112;24.738;2022-11-20T06:24:00;19.77;;;13.53;;
9888;SDS011;4983;42.112;24.738;2022-11-20T06:26:29;19.90;;;13.03;;
9888;SDS011;4983;42.112;24.738;2022-11-20T06:28:56;17.60;;;12.83;;
9888;SDS011;4983;42.112;24.738;2022-11-20T06:31:23;20.73;;;13.50;;
9888;SDS011;4983;42.112;24.738;2022-11-20T06:33:50;19.30;;;12.23;;
9888;SDS011;4983;42.112;24.738;2022-11-20T06:36:18;15.37;;;11.27;;
9888;SDS011;4983;42.112;24.738;2022-11-20T06:38:45;19.20;;;11.10;;
9888;SDS011;4983;42.112;24.738;2022-11-20T06:41:12;19.83;;;12.03;;
9888;SDS011;4983;42.112;24.738;2022-11-20T06:43:41;17.67;;;10.93;;
9888;SDS011;4983;42.112;24.738;2022-11-20T06:46:09;32.03;;;25.17;;
9888;SDS011;4983;42.112;24.738;2022-11-20T06:48:35;19.90;;;13.20;;
9888;SDS011;4983;42.112;24.738;2022-11-20T06:51:02;17.30;;;10.93;;
9888;SDS011;4983;42.112;24.738;2022-11-20T06:53:29;15.07;;;10.00;;
9888;SDS011;4983;42.112;24.738;2022-11-20T06:55:56;14.90;;;9.50;;
9888;SDS011;4983;42.112;24.738;2022-11-20T06:58:25;16.17;;;10.50;;
9888;SDS011;4983;42.112;24.738;2022-11-20T07:00:54;16.53;;;11.00;;
9888;SDS011;4983;42.112;24.738;2022-11-20T07:03:23;19.67;;;14.03;;
9888;SDS011;4983;42.112;24.738;2022-11-20T07:05:50;19.57;;;11.70;;
9888;SDS011;4983;42.112;24.738;2022-11-20T07:08:18;14.63;;;10.80;;
9888;SDS011;4983;42.112;24.738;2022-11-20T07:10:44;17.63;;;13.47;;
9888;SDS011;4983;42.112;24.738;2022-11-20T07:13:11;22.23;;;17.77;;
9888;SDS011;4983;42.112;24.738;2022-11-20T07:15:37;21.33;;;14.90;;
9888;SDS011;4983;42.112;24.738;2022-11-20T07:18:06;21.20;;;12.23;;
9888;SDS011;4983;42.112;24.738;2022-11-20T07:20:32;18.53;;;12.40;;
9888;SDS011;4983;42.112;24.738;2022-11-20T07:22:59;23.73;;;16.23;;
9888;SDS011;4983;42.112;24.738;2022-11-20T07:25:26;21.60;;;15.80;;
9888;SDS011;4983;42.112;24.738;2022-11-20T07:27:56;19.33;;;13.07;;
9888;SDS011;4983;42.112;24.738;2022-11-20T07:30:23;16.83;;;11.77;;
9888;SDS011;4983;42.112;24.738;2022-11-20T07:32:50;15.67;;;10.93;;
9888;SDS011;4983;42.112;24.738;2022-11-20T07:35:19;18.67;;;11.30;;
9888;SDS011;4983;42.112;24.738;2022-11-20T07:37:46;17.47;;;11.87;;
9888;SDS011;4983;42.112;24.738;2022-11-20T07:40:14;14.47;;;9.37;;
9888;SDS011;4983;42.112;24.738;2022-11-20T07:42:46;22.20;;;15.53;;
9888;SDS011;4983;42.112;24.738;2022-11-20T07:45:13;26.70;;;18.27;;
9888;SDS011;4983;42.112;24.738;2022-11-20T07:47:40;31.53;;;26.73;;
9888;SDS011;4983;42.112;24.738;2022-11-20T07:50:07;21.13;;;14.70;;
9888;SDS011;4983;42.112;24.738;2022-11-20T07:52:35;18.13;;;11.60;;
9888;SDS011;4983;42.112;24.738;2022-11-20T07:55:02;18.30;;;12.13;;
9888;SDS011;4983;42.112;24.738;2022-11-20T07:57:29;29.47;;;25.07;;
9888;SDS011;4983;42.112;24.738;2022-11-20T07:59:55;22.30;;;14.67;;
9888;SDS011;4983;42.112;24.738;2022-11-20T08:02:22;18.50;;;11.10;;
9888;SDS011;4983;42.112;24.738;2022-11-20T08:04:49;14.97;;;11.23;;
9888;SDS011;4983;42.112;24.738;2022-11-20T08:07:16;14.90;;;10.73;;
9888;SDS011;4983;42.112;24.738;2022-11-20T08:09:43;19.00;;;10.60;;
9888;SDS011;4983;42.112;24.738;2022-11-20T08:12:10;19.87;;;10.90;;
9888;SDS011;4983;42.112;24.738;2022-11-20T08:15:00;19.83;;;14.70;;
9888;SDS011;4983;42.112;24.738;2022-11-20T08:17:27;21.67;;;16.53;;
9888;SDS011;4983;42.112;24.738;2022-11-20T08:19:53;21.33;;;13.20;;
9888;SDS011;4983;42.112;24.738;2022-11-20T08:22:20;15.30;;;10.60;;
9888;SDS011;4983;42.112;24.738;2022-11-20T08:24:48;17.07;;;10.00;;
9888;SDS011;4983;42.112;24.738;2022-11-20T08:27:15;13.23;;;9.87;;
9888;SDS011;4983;42.112;24.738;2022-11-20T08:29:42;14.30;;;9.30;;
9888;SDS011;4983;42.112;24.738;2022-11-20T08:32:08;16.27;;;9.43;;
9888;SDS011;4983;42.112;24.738;2022-11-20T08:34:35;15.13;;;8.87;;
9888;SDS011;4983;42.112;24.738;2022-11-20T08:37:02;20.63;;;10.33;;
9888;SDS011;4983;42.112;24.738;2022-11-20T08:39:29;16.13;;;9.27;;
9888;SDS011;4983;42.112;24.738;2022-11-20T08:41:57;15.20;;;8.47;;
9888;SDS011;4983;42.112;24.738;2022-11-20T08:44:24;11.63;;;7.63;;
9888;SDS011;4983;42.112;24.738;2022-11-20T08:46:50;12.90;;;8.17;;
9888;SDS011;4983;42.112;24.738;2022-11-20T08:49:17;13.50;;;8.03;;
9888;SDS011;4983;42.112;24.738;2022-11-20T08:51:44;12.93;;;7.27;;
9888;SDS011;4983;42.112;24.738;2022-11-20T08:54:12;13.87;;;7.50;;
9888;SDS011;4983;42.112;24.738;2022-11-20T08:56:39;14.27;;;6.53;;
9888;SDS011;4983;42.112;24.738;2022-11-20T08:59:07;16.23;;;8.53;;
9888;SDS011;4983;42.112;24.738;2022-11-20T09:01:33;12.60;;;6.83;;
9888;SDS011;4983;42.112;24.738;2022-11-20T09:04:00;17.77;;;7.17;;
9888;SDS011;4983;42.112;24.738;2022-11-20T09:06:26;19.30;;;6.63;;
9888;SDS011;4983;42.112;24.738;2022-11-20T09:08:53;10.83;;;6.37;;
9888;SDS011;4983;42.112;24.738;2022-11-20T09:11:20;13.07;;;6.37;;
9888;SDS011;4983;42.112;24.738;2022-11-20T09:13:47;14.77;;;6.23;;
9888;SDS011;4983;42.112;24.738;2022-11-20T09:16:19;10.67;;;6.30;;
9888;SDS011;4983;42.112;24.738;2022-11-20T09:18:46;13.90;;;6.63;;
9888;SDS011;4983;42.112;24.738;2022-11-20T09:21:15;13.03;;;6.70;;
9888;SDS011;4983;42.112;24.738;2022-11-20T09:23:43;13.63;;;7.00;;
9888;SDS011;4983;42.112;24.738;2022-11-20T09:26:10;18.57;;;8.07;;
9888;SDS011;4983;42.112;24.738;2022-11-20T09:28:37;14.97;;;8.60;;
9888;SDS011;4983;42.112;24.738;2022-11-20T09:31:04;12.20;;;8.43;;
9888;SDS011;4983;42.112;24.738;2022-11-20T09:33:32;14.20;;;7.80;;
9888;SDS011;4983;42.112;24.738;2022-11-20T09:35:59;12.60;;;7.77;;
9888;SDS011;4983;42.112;24.738;2022-11-20T09:38:25;13.80;;;7.97;;
9888;SDS011;4983;42.112;24.738;2022-11-20T09:40:55;18.87;;;8.03;;
9888;SDS011;4983;42.112;24.738;2022-11-20T09:43:24;17.33;;;8.07;;
9888;SDS011;4983;42.112;24.738;2022-11-20T09:45:56;12.23;;;6.97;;
9888;SDS011;4983;42.112;24.738;2022-11-20T09:48:26;24.97;;;10.70;;
9888;SDS011;4983;42.112;24.738;2022-11-20T09:50:57;66.60;;;10.53;;
9888;SDS011;4983;42.112;24.738;2022-11-20T09:53:29;16.87;;;7.13;;
9888;SDS011;4983;42.112;24.738;2022-11-20T09:55:57;15.13;;;6.67;;
9888;SDS011;4983;42.112;24.738;2022-11-20T09:58:28;13.60;;;5.70;;
9888;SDS011;4983;42.112;24.738;2022-11-20T10:00:57;28.90;;;7.40;;
9888;SDS011;4983;42.112;24.738;2022-11-20T10:03:29;14.17;;;6.20;;
9888;SDS011;4983;42.112;24.738;2022-11-20T10:06:02;14.03;;;5.50;;
9888;SDS011;4983;42.112;24.738;2022-11-20T10:08:31;45.20;;;7.13;;
9888;SDS011;4983;42.112;24.738;2022-11-20T10:11:04;11.53;;;4.10;;
9888;SDS011;4983;42.112;24.738;2022-11-20T10:13:34;13.17;;;4.27;;
9888;SDS011;4983;42.112;24.738;2022-11-20T10:16:10;10.03;;;4.40;;
9888;SDS011;4983;42.112;24.738;2022-11-20T10:18:41;26.77;;;5.83;;
9888;SDS011;4983;42.112;24.738;2022-11-20T10:21:14;56.73;;;6.10;;
9888;SDS011;4983;42.112;24.738;2022-11-20T10:23:59;10.90;;;4.40;;
9888;SDS011;4983;42.112;24.738;2022-11-20T10:26:31;9.47;;;3.70;;
9888;SDS011;4983;42.112;24.738;2022-11-20T10:29:06;7.67;;;4.03;;
9888;SDS011;4983;42.112;24.738;2022-11-20T10:31:36;9.90;;;4.03;;
9888;SDS011;4983;42.112;24.738;2022-11-20T10:34:06;10.33;;;4.23;;
9888;SDS011;4983;42.112;24.738;2022-11-20T10:36:36;14.37;;;4.17;;
9888;SDS011;4983;42.112;24.738;2022-11-20T10:39:06;10.60;;;3.83;;
9888;SDS011;4983;42.112;24.738;2022-11-20T10:41:35;21.20;;;4.87;;
9888;SDS011;4983;42.112;24.738;2022-11-20T10:44:05;42.90;;;7.00;;
9888;SDS011;4983;42.112;24.738;2022-11-20T10:46:34;31.77;;;6.47;;
9888;SDS011;4983;42.112;24.738;2022-11-20T10:49:04;13.83;;;5.17;;
9888;SDS011;4983;42.112;24.738;2022-11-20T10:51:34;19.67;;;6.03;;
9888;SDS011;4983;42.112;24.738;2022-11-20T10:54:09;10.97;;;5.03;;
9888;SDS011;4983;42.112;24.738;2022-11-20T10:56:39;8.73;;;4.60;;
9888;SDS011;4983;42.112;24.738;2022-11-20T10:59:30;9.73;;;5.47;;
9888;SDS011;4983;42.112;24.738;2022-11-20T11:01:59;14.20;;;5.27;;
9888;SDS011;4983;42.112;24.738;2022-11-20T11:04:30;15.90;;;5.30;;
9888;SDS011;4983;42.112;24.738;2022-11-20T11:07:01;12.80;;;6.27;;
9888;SDS011;4983;42.112;24.738;2022-11-20T11:09:34;12.67;;;5.53;;
9888;SDS011;4983;42.112;24.738;2022-11-20T11:12:05;11.57;;;6.07;;
9888;SDS011;4983;42.112;24.738;2022-11-20T11:14:41;17.60;;;6.00;;
9888;SDS011;4983;42.112;24.738;2022-11-20T11:17:17;17.70;;;5.50;;
9888;SDS011;4983;42.112;24.738;2022-11-20T11:19:45;18.87;;;6.33;;
9888;SDS011;4983;42.112;24.738;2022-11-20T11:22:15;25.63;;;6.63;;
9888;SDS011;4983;42.112;24.738;2022-11-20T11:24:45;39.60;;;7.50;;
9888;SDS011;4983;42.112;24.738;2022-11-20T11:27:17;22.40;;;5.80;;
9888;SDS011;4983;42.112;24.738;2022-11-20T11:29:43;15.80;;;5.90;;
9888;SDS011;4983;42.112;24.738;2022-11-20T11:32:11;76.83;;;10.97;;
9888;SDS011;4983;42.112;24.738;2022-11-20T11:34:38;54.17;;;8.57;;
9888;SDS011;4983;42.112;24.738;2022-11-20T11:37:05;18.23;;;4.47;;
9888;SDS011;4983;42.112;24.738;2022-11-20T11:39:37;17.10;;;4.37;;
9888;SDS011;4983;42.112;24.738;2022-11-20T11:42:08;10.13;;;4.20;;
9888;SDS011;4983;42.112;24.738;2022-11-20T11:44:38;44.30;;;7.43;;
9888;SDS011;4983;42.112;24.738;2022-11-20T11:47:29;23.10;;;5.83;;
9888;SDS011;4983;42.112;24.738;2022-11-20T11:50:13;16.67;;;5.63;;
9888;SDS011;4983;42.112;24.738;2022-11-20T11:52:42;24.10;;;5.60;;
9888;SDS011;4983;42.112;24.738;2022-11-20T11:55:12;31.50;;;6.80;;
9888;SDS011;4983;42.112;24.738;2022-11-20T11:57:43;13.63;;;5.97;;
9888;SDS011;4983;42.112;24.738;2022-11-20T12:00:14;29.53;;;16.13;;
9888;SDS011;4983;42.112;24.738;2022-11-20T12:02:52;45.77;;;13.43;;
9888;SDS011;4983;42.112;24.738;2022-11-20T12:05:20;65.67;;;11.90;;
9888;SDS011;4983;42.112;24.738;2022-11-20T12:07:49;42.23;;;18.20;;
9888;SDS011;4983;42.112;24.738;2022-11-20T12:10:20;46.67;;;16.97;;
9888;SDS011;4983;42.112;24.738;2022-11-20T12:12:50;31.20;;;10.67;;
9888;SDS011;4983;42.112;24.738;2022-11-20T12:15:22;29.20;;;19.37;;
9888;SDS011;4983;42.112;24.738;2022-11-20T12:17:49;21.63;;;12.40;;
9888;SDS011;4983;42.112;24.738;2022-11-20T12:20:16;16.90;;;7.63;;
9888;SDS011;4983;42.112;24.738;2022-11-20T12:22:44;31.07;;;7.20;;
9888;SDS011;4983;42.112;24.738;2022-11-20T12:25:17;37.80;;;8.33;;
9888;SDS011;4983;42.112;24.738;2022-11-20T12:27:55;34.93;;;7.17;;
9888;SDS011;4983;42.112;24.738;2022-11-20T12:30:23;14.10;;;5.17;;
9888;SDS011;4983;42.112;24.738;2022-11-20T12:38:45;23.67;;;6.83;;
9888;SDS011;4983;42.112;24.738;2022-11-20T12:41:18;52.10;;;9.00;;
9888;SDS011;4983;42.112;24.738;2022-11-20T12:44:05;103.20;;;10.60;;
9888;SDS011;4983;42.112;24.738;2022-11-20T12:46:55;92.03;;;11.17;;
9888;SDS011;4983;42.112;24.738;2022-11-20T12:49:29;19.17;;;8.00;;
9888;SDS011;4983;42.112;24.738;2022-11-20T12:52:01;29.50;;;10.00;;
9888;SDS011;4983;42.112;24.738;2022-11-20T12:54:36;34.87;;;8.70;;
9888;SDS011;4983;42.112;24.738;2022-11-20T12:57:08;16.37;;;3.80;;
9888;SDS011;4983;42.112;24.738;2022-11-20T12:59:44;15.20;;;3.53;;
9888;SDS011;4983;42.112;24.738;2022-11-20T13:02:16;18.70;;;4.13;;
9888;SDS011;4983;42.112;24.738;2022-11-20T13:04:49;12.60;;;3.83;;
9888;SDS011;4983;42.112;24.738;2022-11-20T13:07:20;15.30;;;4.00;;
9888;SDS011;4983;42.112;24.738;2022-11-20T13:09:48;21.43;;;3.97;;
9888;SDS011;4983;42.112;24.738;2022-11-20T13:12:17;19.07;;;4.90;;
9888;SDS011;4983;42.112;24.738;2022-11-20T13:14:50;18.20;;;4.00;;
9888;SDS011;4983;42.112;24.738;2022-11-20T13:17:20;50.20;;;7.33;;
9888;SDS011;4983;42.112;24.738;2022-11-20T13:19:52;35.90;;;5.97;;
9888;SDS011;4983;42.112;24.738;2022-11-20T13:22:24;28.30;;;5.47;;
9888;SDS011;4983;42.112;24.738;2022-11-20T13:24:51;18.93;;;4.40;;
9888;SDS011;4983;42.112;24.738;2022-11-20T13:27:18;16.03;;;3.93;;
9888;SDS011;4983;42.112;24.738;2022-11-20T13:29:58;15.40;;;4.80;;
9888;SDS011;4983;42.112;24.738;2022-11-20T13:32:25;22.83;;;8.20;;
9888;SDS011;4983;42.112;24.738;2022-11-20T13:34:57;15.20;;;3.17;;
9888;SDS011;4983;42.112;24.738;2022-11-20T13:37:26;15.73;;;3.70;;
9888;SDS011;4983;42.112;24.738;2022-11-20T13:40:04;19.50;;;4.23;;
9888;SDS011;4983;42.112;24.738;2022-11-20T13:42:31;21.63;;;4.43;;
9888;SDS011;4983;42.112;24.738;2022-11-20T13:45:07;45.77;;;6.43;;
9888;SDS011;4983;42.112;24.738;2022-11-20T13:47:35;14.20;;;3.93;;
9888;SDS011;4983;42.112;24.738;2022-11-20T13:50:02;16.03;;;3.80;;
9888;SDS011;4983;42.112;24.738;2022-11-20T13:52:34;24.53;;;4.97;;
9888;SDS011;4983;42.112;24.738;2022-11-20T13:55:10;19.23;;;3.60;;
9888;SDS011;4983;42.112;24.738;2022-11-20T14:00:24;17.10;;;3.80;;
9888;SDS011;4983;42.112;24.738;2022-11-20T14:02:58;74.80;;;5.33;;
9888;SDS011;4983;42.112;24.738;2022-11-20T14:05:26;12.50;;;2.13;;
9888;SDS011;4983;42.112;24.738;2022-11-20T14:07:52;8.43;;;1.60;;
9888;SDS011;4983;42.112;24.738;2022-11-20T14:10:20;8.27;;;1.50;;
9888;SDS011;4983;42.112;24.738;2022-11-20T14:12:47;5.87;;;1.70;;
9888;SDS011;4983;42.112;24.738;2022-11-20T14:15:25;8.97;;;1.30;;
9888;SDS011;4983;42.112;24.738;2022-11-20T14:17:52;6.50;;;1.40;;
9888;SDS011;4983;42.112;24.738;2022-11-20T14:20:18;7.17;;;1.40;;
9888;SDS011;4983;42.112;24.738;2022-11-20T14:22:49;6.87;;;1.40;;
9888;SDS011;4983;42.112;24.738;2022-11-20T14:25:19;6.47;;;1.80;;
9888;SDS011;4983;42.112;24.738;2022-11-20T14:27:50;3.93;;;1.13;;
9888;SDS011;4983;42.112;24.738;2022-11-20T14:30:18;3.27;;;1.10;;
9888;SDS011;4983;42.112;24.738;2022-11-20T14:32:47;10.77;;;2.30;;
9888;SDS011;4983;42.112;24.738;2022-11-20T14:35:18;5.93;;;1.60;;
9888;SDS011;4983;42.112;24.738;2022-11-20T14:37:46;6.27;;;1.60;;
9888;SDS011;4983;42.112;24.738;2022-11-20T14:40:23;11.03;;;2.00;;
9888;SDS011;4983;42.112;24.738;2022-11-20T14:42:50;3.50;;;1.30;;
9888;SDS011;4983;42.112;24.738;2022-11-20T14:45:17;6.93;;;2.17;;
9888;SDS011;4983;42.112;24.738;2022-11-20T14:47:44;11.80;;;2.07;;
9888;SDS011;4983;42.112;24.738;2022-11-20T14:50:14;6.40;;;2.30;;
9888;SDS011;4983;42.112;24.738;2022-11-20T14:52:49;6.80;;;1.50;;
9888;SDS011;4983;42.112;24.738;2022-11-20T14:55:24;7.57;;;2.03;;
9888;SDS011;4983;42.112;24.738;2022-11-20T14:57:54;5.30;;;2.30;;